createdAt,value
2018-03-30T18:42:34.627Z,420.00
2018-03-30T18:43:07.207Z,444.00
2018-03-30T18:44:39.027Z,392.00
2018-03-30T18:47:09.411Z,296.00
2018-03-30T18:48:40.416Z,216.00
2018-03-30T18:50:12.132Z,416.00
2018-03-30T18:51:43.950Z,708.00
2018-03-30T18:53:15.786Z,920.00
2018-03-30T18:54:47.582Z,1016.00
2018-03-30T18:56:19.398Z,1004.00
2018-03-30T18:57:51.214Z,960.00
2018-03-30T18:59:23.029Z,944.00
2018-03-30T19:00:54.945Z,928.00
2018-03-30T19:02:26.664Z,912.00
2018-03-30T19:03:58.475Z,884.00
2018-03-30T19:05:30.289Z,868.00
2018-03-30T19:07:02.307Z,868.00
2018-03-30T19:08:33.918Z,872.00
2018-03-30T19:10:05.733Z,868.00
2018-03-30T19:11:37.546Z,856.00
2018-03-30T19:14:41.175Z,808.00
2018-03-30T19:16:12.990Z,808.00
2018-03-30T19:17:45.006Z,808.00
2018-03-30T19:19:16.618Z,824.00
2018-03-30T19:20:48.533Z,864.00
2018-03-30T19:22:20.249Z,892.00
2018-03-30T19:23:52.062Z,920.00
2018-03-30T19:25:23.878Z,940.00
2018-03-30T19:26:55.840Z,948.00
2018-03-30T19:28:27.504Z,964.00
2018-03-30T19:31:31.133Z,976.00
2018-03-30T19:33:02.947Z,1008.00
2018-03-30T19:34:34.770Z,1056.00
2018-03-30T19:36:06.577Z,1100.00
2018-03-30T19:37:38.392Z,1104.00
2018-03-30T19:39:10.307Z,1092.00
2018-03-30T19:40:42.030Z,1076.00
2018-03-30T19:42:13.837Z,1060.00
2018-03-30T19:43:45.653Z,1052.00
2018-03-30T19:45:17.468Z,1044.00
2018-03-30T19:46:49.282Z,1036.00
2018-03-30T19:48:21.098Z,1024.00
2018-03-30T19:49:52.913Z,1004.00
2018-03-30T19:51:24.829Z,976.00
2018-03-30T19:52:56.543Z,932.00
2018-03-30T19:54:28.359Z,888.00
2018-03-30T19:56:00.174Z,856.00
2018-03-30T19:57:32.089Z,828.00
2018-03-30T19:59:03.804Z,804.00
2018-03-30T20:00:35.619Z,792.00
2018-03-30T20:02:07.435Z,780.00
2018-03-30T20:03:39.249Z,768.00
2018-03-30T20:05:11.067Z,756.00
2018-03-30T20:06:42.881Z,748.00
2018-03-30T20:08:14.696Z,748.00
2018-03-30T20:09:46.568Z,752.00
2018-03-30T20:11:18.329Z,760.00
2018-03-30T20:12:50.144Z,764.00
2018-03-30T20:14:21.959Z,776.00
2018-03-30T20:15:54.130Z,780.00
2018-03-30T20:17:25.590Z,776.00
2018-03-30T20:18:57.406Z,772.00
2018-03-30T20:20:29.222Z,768.00
2018-03-30T20:22:01.138Z,756.00
2018-03-30T20:23:32.853Z,748.00
2018-03-30T20:25:04.670Z,720.00
2018-03-30T20:26:36.488Z,676.00
2018-03-30T20:28:08.452Z,620.00
2018-03-30T20:29:40.136Z,564.00
2018-03-30T20:31:11.933Z,516.00
2018-03-30T20:32:43.750Z,476.00
2018-03-30T20:34:15.665Z,440.00
2018-03-30T20:35:47.611Z,404.00
2018-03-30T20:37:19.196Z,364.00
2018-03-30T20:38:51.012Z,320.00
2018-03-30T20:40:22.827Z,288.00
2018-03-30T20:41:54.644Z,252.00
2018-03-30T20:43:26.459Z,232.00
2018-03-30T20:44:58.276Z,216.00
2018-03-30T20:46:30.344Z,200.00
2018-03-30T20:48:01.910Z,188.00
2018-03-30T20:49:33.721Z,176.00
2018-03-30T20:51:05.536Z,164.00
2018-03-30T20:52:37.553Z,156.00
2018-03-30T20:54:09.168Z,140.00
2018-03-30T20:55:40.983Z,124.00
2018-03-30T20:57:12.799Z,104.00
2018-03-30T20:58:44.617Z,88.00
2018-03-30T21:00:16.430Z,72.00
2018-03-30T21:01:48.246Z,68.00
2018-03-30T21:03:20.062Z,60.00
2018-03-30T21:04:51.877Z,52.00
2018-03-30T21:06:23.693Z,48.00
2018-03-30T21:07:55.509Z,44.00
2018-03-30T21:09:27.325Z,40.00
2018-03-30T21:10:59.544Z,32.00
2018-03-30T21:12:30.955Z,28.00
2018-03-30T21:14:02.771Z,20.00
2018-03-30T21:15:34.587Z,16.00
2018-03-30T21:17:06.652Z,12.00
2018-03-30T21:18:38.218Z,8.00
2018-03-30T21:20:10.033Z,8.00
2018-03-30T21:21:41.849Z,4.00
2018-03-30T21:23:13.664Z,4.00
2018-03-30T21:24:45.479Z,0.00
2018-03-30T21:26:17.295Z,0.00
2018-03-30T21:27:49.110Z,0.00
2018-03-30T21:29:21.533Z,0.00
2018-03-30T21:30:52.743Z,0.00
2018-03-30T21:32:24.556Z,0.00
2018-03-30T21:33:56.372Z,0.00
2018-03-30T21:35:28.190Z,0.00
2018-03-30T21:37:00.206Z,0.00
2018-03-30T21:38:31.818Z,0.00
2018-03-30T21:40:03.634Z,0.00
2018-03-30T21:41:35.449Z,0.00
2018-03-30T21:43:07.264Z,0.00
2018-03-30T21:44:39.081Z,0.00
2018-03-30T21:46:10.895Z,0.00
2018-03-30T21:47:43.063Z,0.00
2018-03-30T21:49:14.527Z,0.00
2018-03-30T21:50:46.342Z,0.00
2018-03-30T21:52:18.158Z,0.00
2018-03-30T21:53:49.974Z,0.00
2018-03-30T21:55:21.790Z,0.00
2018-03-30T21:56:53.605Z,0.00
2018-03-30T21:58:25.421Z,0.00
2018-03-30T21:59:57.242Z,0.00
2018-03-30T22:01:29.053Z,0.00
2018-03-30T22:03:00.868Z,0.00
2018-03-30T22:04:32.684Z,0.00
2018-03-30T22:06:04.799Z,0.00
2018-03-30T22:07:36.319Z,0.00
2018-03-30T22:09:08.130Z,0.00
2018-03-30T22:10:39.946Z,0.00
2018-03-30T22:12:11.762Z,0.00
2018-03-30T22:13:43.578Z,0.00
2018-03-30T22:15:15.394Z,0.00
2018-03-30T22:16:47.208Z,0.00
2018-03-30T22:18:19.024Z,0.00
2018-03-30T22:19:50.840Z,0.00
2018-03-30T22:21:22.656Z,0.00
2018-03-30T22:22:54.471Z,0.00
2018-03-30T22:24:26.515Z,0.00
2018-03-30T22:25:58.102Z,0.00
2018-03-30T22:27:29.918Z,0.00
2018-03-30T22:29:01.736Z,0.00
2018-03-30T22:30:33.552Z,0.00
2018-03-30T22:32:05.365Z,0.00
2018-03-30T22:33:37.181Z,0.00
2018-03-30T22:35:08.997Z,0.00
2018-03-30T22:36:40.812Z,0.00
2018-03-30T22:38:12.628Z,0.00
2018-03-30T22:39:44.446Z,0.00
2018-03-30T22:41:16.259Z,0.00
2018-03-30T22:42:48.174Z,0.00
2018-03-30T22:44:19.890Z,0.00
2018-03-30T22:45:51.705Z,0.00
2018-03-30T22:47:23.521Z,0.00
2018-03-30T22:48:55.337Z,0.00
2018-03-30T22:50:27.152Z,0.00
2018-03-30T22:51:58.968Z,0.00
2018-03-30T22:53:30.783Z,0.00
2018-03-30T22:55:02.702Z,0.00
2018-03-30T22:56:34.416Z,0.00
2018-03-30T22:58:06.230Z,0.00
2018-03-30T22:59:38.048Z,0.00
2018-03-30T23:01:09.962Z,0.00
2018-03-30T23:02:41.678Z,0.00
2018-03-30T23:04:13.493Z,0.00
2018-03-30T23:05:45.309Z,0.00
2018-03-30T23:07:17.127Z,0.00
2018-03-30T23:08:48.940Z,0.00
2018-03-30T23:10:20.756Z,0.00
2018-03-30T23:11:52.572Z,0.00
2018-03-30T23:13:24.387Z,0.00
2018-03-30T23:14:56.205Z,0.00
2018-03-30T23:16:28.019Z,0.00
2018-03-30T23:17:59.835Z,0.00
2018-03-30T23:19:31.851Z,0.00
2018-03-30T23:21:03.468Z,0.00
2018-03-30T23:22:35.283Z,0.00
2018-03-30T23:24:07.100Z,0.00
2018-03-30T23:25:38.915Z,0.00
2018-03-30T23:27:10.731Z,0.00
2018-03-30T23:28:42.548Z,0.00
2018-03-30T23:30:14.363Z,0.00
2018-03-30T23:31:46.486Z,0.00
2018-03-30T23:33:17.996Z,0.00
2018-03-30T23:34:49.813Z,0.00
2018-03-30T23:36:21.629Z,0.00
2018-03-30T23:37:53.546Z,0.00
2018-03-30T23:39:25.263Z,0.00
2018-03-30T23:40:57.077Z,0.00
2018-03-30T23:42:28.894Z,0.00
2018-03-30T23:44:00.712Z,0.00
2018-03-30T23:45:32.526Z,0.00
2018-03-30T23:47:04.347Z,0.00
2018-03-30T23:48:36.158Z,0.00
2018-03-30T23:50:08.076Z,0.00
2018-03-30T23:51:39.792Z,0.00
2018-03-30T23:53:11.608Z,0.00
2018-03-30T23:54:43.424Z,0.00
2018-03-30T23:56:15.340Z,0.00
2018-03-30T23:57:47.057Z,0.00
2018-03-30T23:59:18.873Z,0.00
